sensor_id;sensor_type;location;lat;lon;timestamp;pressure;altitude;pressure_sealevel;temperature;humidity
73692;BME280;61996;49.910;35.562;2022-09-09T00:01:57;99828.47;;;15.25;49.14
73692;BME280;61996;49.910;35.562;2022-09-09T00:05:09;99832.13;;;15.35;49.47
73692;BME280;61996;49.910;35.562;2022-09-09T00:08:18;99833.03;;;15.23;49.13
73692;BME280;61996;49.910;35.562;2022-09-09T00:11:24;99834.78;;;15.35;48.91
73692;BME280;61996;49.910;35.562;2022-09-09T00:14:34;99835.56;;;15.25;49.12
73692;BME280;61996;49.910;35.562;2022-09-09T00:17:42;99838.22;;;15.25;49.78
73692;BME280;61996;49.910;35.562;2022-09-09T00:20:47;99835.50;;;15.14;49.88
73692;BME280;61996;49.910;35.562;2022-09-09T00:23:53;99848.53;;;15.17;49.80
73692;BME280;61996;49.910;35.562;2022-09-09T00:26:58;99834.88;;;15.10;49.38
73692;BME280;61996;49.910;35.562;2022-09-09T00:30:13;99837.88;;;15.29;50.20
73692;BME280;61996;49.910;35.562;2022-09-09T00:33:17;99838.25;;;15.12;49.60
73692;BME280;61996;49.910;35.562;2022-09-09T00:36:23;99841.88;;;15.11;50.11
73692;BME280;61996;49.910;35.562;2022-09-09T00:39:31;99842.72;;;15.12;49.27
73692;BME280;61996;49.910;35.562;2022-09-09T00:42:40;99838.88;;;15.16;49.79
73692;BME280;61996;49.910;35.562;2022-09-09T00:46:00;99846.91;;;15.27;51.21
73692;BME280;61996;49.910;35.562;2022-09-09T00:49:11;99840.50;;;15.05;49.62
73692;BME280;61996;49.910;35.562;2022-09-09T00:52:21;99845.69;;;15.07;49.03
73692;BME280;61996;49.910;35.562;2022-09-09T00:55:26;99854.25;;;15.23;50.61
73692;BME280;61996;49.910;35.562;2022-09-09T00:58:32;99842.28;;;15.05;49.89
73692;BME280;61996;49.910;35.562;2022-09-09T01:01:35;99842.81;;;15.10;49.95
73692;BME280;61996;49.910;35.562;2022-09-09T01:04:38;99847.06;;;15.00;50.35
73692;BME280;61996;49.910;35.562;2022-09-09T01:07:42;99848.63;;;15.15;50.46
73692;BME280;61996;49.910;35.562;2022-09-09T01:10:48;99847.03;;;15.13;49.78
73692;BME280;61996;49.910;35.562;2022-09-09T01:13:55;99851.50;;;15.12;49.66
73692;BME280;61996;49.910;35.562;2022-09-09T01:17:02;99853.63;;;15.07;49.88
73692;BME280;61996;49.910;35.562;2022-09-09T01:20:10;99852.16;;;15.03;49.08
73692;BME280;61996;49.910;35.562;2022-09-09T01:23:23;99863.59;;;15.16;50.29
73692;BME280;61996;49.910;35.562;2022-09-09T01:26:31;99861.72;;;15.29;49.56
73692;BME280;61996;49.910;35.562;2022-09-09T01:29:34;99853.31;;;14.99;49.31
73692;BME280;61996;49.910;35.562;2022-09-09T01:32:40;99856.63;;;15.02;50.38
73692;BME280;61996;49.910;35.562;2022-09-09T01:35:45;99858.59;;;15.12;50.20
73692;BME280;61996;49.910;35.562;2022-09-09T01:38:52;99865.75;;;15.22;50.69
73692;BME280;61996;49.910;35.562;2022-09-09T01:41:56;99867.66;;;14.96;50.14
73692;BME280;61996;49.910;35.562;2022-09-09T01:44:59;99855.84;;;15.00;50.31
73692;BME280;61996;49.910;35.562;2022-09-09T01:48:02;99861.16;;;14.88;49.67
73692;BME280;61996;49.910;35.562;2022-09-09T01:51:05;99866.69;;;14.97;49.69
73692;BME280;61996;49.910;35.562;2022-09-09T01:54:08;99869.34;;;14.72;49.81
73692;BME280;61996;49.910;35.562;2022-09-09T01:57:14;99862.75;;;15.03;49.21
73692;BME280;61996;49.910;35.562;2022-09-09T02:00:19;99868.19;;;14.89;49.74
73692;BME280;61996;49.910;35.562;2022-09-09T02:03:23;99868.38;;;15.35;49.56
73692;BME280;61996;49.910;35.562;2022-09-09T02:06:28;99874.69;;;15.08;49.11
73692;BME280;61996;49.910;35.562;2022-09-09T02:09:36;99883.44;;;15.71;49.83
73692;BME280;61996;49.910;35.562;2022-09-09T02:12:42;99886.31;;;16.16;49.45
73692;BME280;61996;49.910;35.562;2022-09-09T02:15:47;99889.69;;;16.18;48.54
73692;BME280;61996;49.910;35.562;2022-09-09T02:18:55;99890.69;;;16.28;48.32
73692;BME280;61996;49.910;35.562;2022-09-09T02:22:00;99883.47;;;16.30;48.95
73692;BME280;61996;49.910;35.562;2022-09-09T02:25:04;99882.63;;;16.41;48.28
73692;BME280;61996;49.910;35.562;2022-09-09T02:28:09;99878.88;;;16.79;50.54
73692;BME280;61996;49.910;35.562;2022-09-09T02:31:14;99884.72;;;16.49;50.52
73692;BME280;61996;49.910;35.562;2022-09-09T02:34:20;99883.75;;;16.61;48.93
73692;BME280;61996;49.910;35.562;2022-09-09T02:37:26;99885.78;;;16.00;48.57
73692;BME280;61996;49.910;35.562;2022-09-09T02:40:31;99894.63;;;15.63;50.75
73692;BME280;61996;49.910;35.562;2022-09-09T02:43:35;99892.38;;;15.57;50.30
73692;BME280;61996;49.910;35.562;2022-09-09T02:46:53;99889.88;;;14.94;50.74
73692;BME280;61996;49.910;35.562;2022-09-09T02:50:03;99885.41;;;14.94;49.98
73692;BME280;61996;49.910;35.562;2022-09-09T02:53:09;99896.66;;;14.98;50.63
73692;BME280;61996;49.910;35.562;2022-09-09T02:56:14;99898.16;;;14.64;50.39
73692;BME280;61996;49.910;35.562;2022-09-09T02:59:20;99901.84;;;14.87;49.69
73692;BME280;61996;49.910;35.562;2022-09-09T03:02:23;99896.47;;;14.63;50.37
73692;BME280;61996;49.910;35.562;2022-09-09T03:05:26;99902.38;;;14.66;50.43
73692;BME280;61996;49.910;35.562;2022-09-09T03:08:29;99912.97;;;14.66;51.15
73692;BME280;61996;49.910;35.562;2022-09-09T03:11:32;99913.16;;;14.50;50.46
73692;BME280;61996;49.910;35.562;2022-09-09T03:14:36;99924.31;;;14.56;50.51
73692;BME280;61996;49.910;35.562;2022-09-09T03:17:39;99908.53;;;14.79;50.04
73692;BME280;61996;49.910;35.562;2022-09-09T03:20:42;99922.50;;;14.56;51.44
73692;BME280;61996;49.910;35.562;2022-09-09T03:23:45;99927.56;;;14.46;51.32
73692;BME280;61996;49.910;35.562;2022-09-09T03:26:48;99924.50;;;14.52;50.11
73692;BME280;61996;49.910;35.562;2022-09-09T03:29:53;99936.25;;;14.48;51.07
73692;BME280;61996;49.910;35.562;2022-09-09T03:32:56;99935.84;;;14.55;51.61
73692;BME280;61996;49.910;35.562;2022-09-09T03:35:59;99943.56;;;14.70;49.46
73692;BME280;61996;49.910;35.562;2022-09-09T03:39:02;99945.59;;;14.54;50.31
73692;BME280;61996;49.910;35.562;2022-09-09T03:42:05;99961.13;;;14.32;51.11
73692;BME280;61996;49.910;35.562;2022-09-09T03:45:09;99960.22;;;14.33;50.59
73692;BME280;61996;49.910;35.562;2022-09-09T03:48:13;99970.53;;;14.50;50.79
73692;BME280;61996;49.910;35.562;2022-09-09T03:51:15;99969.91;;;14.59;51.20
73692;BME280;61996;49.910;35.562;2022-09-09T03:54:19;99968.38;;;14.82;51.36
73692;BME280;61996;49.910;35.562;2022-09-09T03:57:22;99974.63;;;14.68;51.33
73692;BME280;61996;49.910;35.562;2022-09-09T04:00:27;99970.16;;;14.94;50.77
73692;BME280;61996;49.910;35.562;2022-09-09T04:03:30;99968.59;;;15.17;51.61
73692;BME280;61996;49.910;35.562;2022-09-09T04:06:33;99975.69;;;14.91;50.93
73692;BME280;61996;49.910;35.562;2022-09-09T04:09:36;99969.75;;;15.13;50.99
73692;BME280;61996;49.910;35.562;2022-09-09T04:12:39;99971.31;;;15.41;49.69
73692;BME280;61996;49.910;35.562;2022-09-09T04:15:43;99973.53;;;15.47;50.02
73692;BME280;61996;49.910;35.562;2022-09-09T04:18:46;99964.44;;;15.26;50.73
73692;BME280;61996;49.910;35.562;2022-09-09T04:21:49;99961.22;;;15.46;50.05
73692;BME280;61996;49.910;35.562;2022-09-09T04:24:52;99964.63;;;15.48;50.16
73692;BME280;61996;49.910;35.562;2022-09-09T04:27:55;99958.13;;;16.02;49.73
73692;BME280;61996;49.910;35.562;2022-09-09T04:31:04;99954.44;;;16.15;49.60
73692;BME280;61996;49.910;35.562;2022-09-09T04:34:07;99955.19;;;16.53;48.61
73692;BME280;61996;49.910;35.562;2022-09-09T04:37:10;99952.88;;;15.89;48.56
73692;BME280;61996;49.910;35.562;2022-09-09T04:40:13;99961.22;;;15.96;49.20
73692;BME280;61996;49.910;35.562;2022-09-09T04:43:16;99965.91;;;16.16;48.64
73692;BME280;61996;49.910;35.562;2022-09-09T04:46:21;99964.91;;;15.69;48.58
73692;BME280;61996;49.910;35.562;2022-09-09T04:49:25;99963.19;;;16.05;49.49
73692;BME280;61996;49.910;35.562;2022-09-09T04:52:28;99963.88;;;16.20;47.38
73692;BME280;61996;49.910;35.562;2022-09-09T04:55:31;99965.00;;;16.28;48.86
73692;BME280;61996;49.910;35.562;2022-09-09T04:58:34;99967.34;;;16.20;47.67
73692;BME280;61996;49.910;35.562;2022-09-09T05:01:39;99975.84;;;16.25;48.16
73692;BME280;61996;49.910;35.562;2022-09-09T05:04:42;99973.06;;;16.51;47.65
73692;BME280;61996;49.910;35.562;2022-09-09T05:07:45;99979.25;;;16.27;47.87
73692;BME280;61996;49.910;35.562;2022-09-09T05:10:49;99980.09;;;16.28;47.73
73692;BME280;61996;49.910;35.562;2022-09-09T05:13:52;99978.31;;;16.39;47.51
73692;BME280;61996;49.910;35.562;2022-09-09T05:16:57;99987.94;;;16.29;48.89
73692;BME280;61996;49.910;35.562;2022-09-09T05:20:00;99988.50;;;16.81;46.65
73692;BME280;61996;49.910;35.562;2022-09-09T05:23:09;99993.00;;;16.67;47.87
73692;BME280;61996;49.910;35.562;2022-09-09T05:26:17;99988.50;;;16.81;46.62
73692;BME280;61996;49.910;35.562;2022-09-09T05:29:20;99992.97;;;16.80;46.74
73692;BME280;61996;49.910;35.562;2022-09-09T05:32:24;99986.94;;;16.78;48.21
73692;BME280;61996;49.910;35.562;2022-09-09T05:35:27;99992.53;;;17.09;47.83
73692;BME280;61996;49.910;35.562;2022-09-09T05:38:30;99987.69;;;16.91;46.63
73692;BME280;61996;49.910;35.562;2022-09-09T05:41:33;99985.63;;;16.95;47.17
73692;BME280;61996;49.910;35.562;2022-09-09T05:44:37;99985.56;;;17.19;47.72
73692;BME280;61996;49.910;35.562;2022-09-09T05:47:41;100001.97;;;17.13;46.43
73692;BME280;61996;49.910;35.562;2022-09-09T05:50:52;99990.63;;;17.78;46.24
73692;BME280;61996;49.910;35.562;2022-09-09T05:53:55;100005.53;;;17.80;45.09
73692;BME280;61996;49.910;35.562;2022-09-09T05:57:00;100014.97;;;17.73;45.55
73692;BME280;61996;49.910;35.562;2022-09-09T06:00:04;100015.06;;;17.94;44.52
73692;BME280;61996;49.910;35.562;2022-09-09T06:03:08;100010.72;;;17.82;44.37
73692;BME280;61996;49.910;35.562;2022-09-09T06:06:13;100012.97;;;17.98;45.05
73692;BME280;61996;49.910;35.562;2022-09-09T06:09:16;100024.25;;;17.68;45.06
73692;BME280;61996;49.910;35.562;2022-09-09T06:12:19;100019.03;;;17.89;44.35
73692;BME280;61996;49.910;35.562;2022-09-09T06:15:22;100026.28;;;17.98;44.53
73692;BME280;61996;49.910;35.562;2022-09-09T06:18:27;100028.59;;;17.91;43.81
73692;BME280;61996;49.910;35.562;2022-09-09T06:21:31;100036.56;;;17.80;45.45
73692;BME280;61996;49.910;35.562;2022-09-09T06:24:35;100030.00;;;18.18;44.69
73692;BME280;61996;49.910;35.562;2022-09-09T06:27:37;100037.56;;;18.33;44.25
73692;BME280;61996;49.910;35.562;2022-09-09T06:30:40;100036.06;;;18.08;44.08
73692;BME280;61996;49.910;35.562;2022-09-09T06:33:44;100037.25;;;18.16;43.99
73692;BME280;61996;49.910;35.562;2022-09-09T06:36:47;100040.75;;;18.59;44.07
73692;BME280;61996;49.910;35.562;2022-09-09T06:39:50;100047.75;;;18.60;43.16
73692;BME280;61996;49.910;35.562;2022-09-09T06:42:53;100048.19;;;18.45;43.71
73692;BME280;61996;49.910;35.562;2022-09-09T06:45:57;100046.84;;;18.50;43.11
73692;BME280;61996;49.910;35.562;2022-09-09T06:49:01;100044.09;;;18.41;42.81
73692;BME280;61996;49.910;35.562;2022-09-09T06:52:04;100050.22;;;18.84;42.75
73692;BME280;61996;49.910;35.562;2022-09-09T06:55:07;100060.47;;;18.68;43.31
73692;BME280;61996;49.910;35.562;2022-09-09T06:58:10;100064.72;;;18.71;42.55
73692;BME280;61996;49.910;35.562;2022-09-09T07:01:16;100069.84;;;18.83;42.59
73692;BME280;61996;49.910;35.562;2022-09-09T07:04:21;100074.78;;;18.56;42.45
73692;BME280;61996;49.910;35.562;2022-09-09T07:07:24;100079.34;;;18.97;43.18
73692;BME280;61996;49.910;35.562;2022-09-09T07:10:28;100083.13;;;18.95;42.08
73692;BME280;61996;49.910;35.562;2022-09-09T07:13:31;100092.34;;;18.90;42.14
73692;BME280;61996;49.910;35.562;2022-09-09T07:16:34;100096.41;;;19.06;42.82
73692;BME280;61996;49.910;35.562;2022-09-09T07:19:39;100107.97;;;18.95;41.87
73692;BME280;61996;49.910;35.562;2022-09-09T07:22:42;100112.78;;;19.01;41.15
73692;BME280;61996;49.910;35.562;2022-09-09T07:25:45;100106.47;;;19.02;42.28
73692;BME280;61996;49.910;35.562;2022-09-09T07:28:48;100108.63;;;19.08;41.51
73692;BME280;61996;49.910;35.562;2022-09-09T07:31:51;100106.50;;;19.23;41.31
73692;BME280;61996;49.910;35.562;2022-09-09T07:34:55;100102.16;;;18.90;40.62
73692;BME280;61996;49.910;35.562;2022-09-09T07:38:00;100118.97;;;19.23;41.31
73692;BME280;61996;49.910;35.562;2022-09-09T07:41:04;100129.50;;;19.24;41.24
73692;BME280;61996;49.910;35.562;2022-09-09T07:44:08;100120.66;;;19.24;40.97
73692;BME280;61996;49.910;35.562;2022-09-09T07:47:12;100129.38;;;19.26;41.30
73692;BME280;61996;49.910;35.562;2022-09-09T07:50:16;100126.19;;;19.32;41.29
73692;BME280;61996;49.910;35.562;2022-09-09T07:53:19;100120.81;;;19.22;40.23
73692;BME280;61996;49.910;35.562;2022-09-09T07:56:22;100109.28;;;19.42;40.94
73692;BME280;61996;49.910;35.562;2022-09-09T07:59:26;100105.91;;;19.40;41.07
73692;BME280;61996;49.910;35.562;2022-09-09T08:02:30;100095.34;;;19.39;40.58
73692;BME280;61996;49.910;35.562;2022-09-09T08:05:34;100095.03;;;19.53;40.03
73692;BME280;61996;49.910;35.562;2022-09-09T08:08:37;100091.59;;;19.41;39.92
73692;BME280;61996;49.910;35.562;2022-09-09T08:11:42;100083.31;;;19.65;41.02
73692;BME280;61996;49.910;35.562;2022-09-09T08:14:45;100083.09;;;19.68;40.21
73692;BME280;61996;49.910;35.562;2022-09-09T08:17:48;100078.69;;;19.67;39.94
73692;BME280;61996;49.910;35.562;2022-09-09T08:20:52;100086.91;;;19.76;40.32
73692;BME280;61996;49.910;35.562;2022-09-09T08:23:55;100087.59;;;19.78;40.19
73692;BME280;61996;49.910;35.562;2022-09-09T08:26:58;100084.91;;;19.68;39.66
73692;BME280;61996;49.910;35.562;2022-09-09T08:30:01;100081.88;;;19.82;39.45
73692;BME280;61996;49.910;35.562;2022-09-09T08:33:04;100072.88;;;19.83;39.20
73692;BME280;61996;49.910;35.562;2022-09-09T08:36:10;100075.03;;;19.89;39.02
73692;BME280;61996;49.910;35.562;2022-09-09T08:39:14;100081.44;;;19.87;39.52
73692;BME280;61996;49.910;35.562;2022-09-09T08:42:20;100075.72;;;19.91;38.98
73692;BME280;61996;49.910;35.562;2022-09-09T08:45:28;100078.16;;;20.04;38.73
73692;BME280;61996;49.910;35.562;2022-09-09T08:51:58;100071.28;;;20.11;38.32
73692;BME280;61996;49.910;35.562;2022-09-09T08:55:03;100064.41;;;20.18;38.39
73692;BME280;61996;49.910;35.562;2022-09-09T08:58:14;100069.03;;;20.07;37.87
73692;BME280;61996;49.910;35.562;2022-09-09T09:01:30;100064.13;;;20.12;38.12
73692;BME280;61996;49.910;35.562;2022-09-09T09:04:46;100050.78;;;20.21;37.31
73692;BME280;61996;49.910;35.562;2022-09-09T09:07:59;100050.53;;;20.34;37.74
73692;BME280;61996;49.910;35.562;2022-09-09T09:11:04;100054.19;;;20.43;37.52
73692;BME280;61996;49.910;35.562;2022-09-09T09:14:09;100052.66;;;20.40;37.76
73692;BME280;61996;49.910;35.562;2022-09-09T09:17:14;100072.22;;;20.50;37.89
73692;BME280;61996;49.910;35.562;2022-09-09T09:20:18;100069.53;;;20.41;36.93
73692;BME280;61996;49.910;35.562;2022-09-09T09:23:25;100060.16;;;20.46;37.41
73692;BME280;61996;49.910;35.562;2022-09-09T09:26:30;100070.69;;;20.48;37.18
73692;BME280;61996;49.910;35.562;2022-09-09T09:29:33;100066.47;;;20.55;37.18
73692;BME280;61996;49.910;35.562;2022-09-09T09:32:58;100062.81;;;20.56;36.79
73692;BME280;61996;49.910;35.562;2022-09-09T09:36:02;100067.91;;;20.59;36.79
73692;BME280;61996;49.910;35.562;2022-09-09T09:39:21;100068.19;;;20.66;36.76
73692;BME280;61996;49.910;35.562;2022-09-09T09:42:48;100069.03;;;20.66;36.82
73692;BME280;61996;49.910;35.562;2022-09-09T09:45:51;100068.59;;;20.71;36.44
73692;BME280;61996;49.910;35.562;2022-09-09T09:49:14;100065.78;;;20.82;36.29
73692;BME280;61996;49.910;35.562;2022-09-09T09:52:18;100068.72;;;20.79;36.33
73692;BME280;61996;49.910;35.562;2022-09-09T09:55:25;100068.19;;;20.66;36.64
73692;BME280;61996;49.910;35.562;2022-09-09T09:58:30;100067.47;;;20.73;36.03
73692;BME280;61996;49.910;35.562;2022-09-09T10:01:35;100068.31;;;20.84;35.87
73692;BME280;61996;49.910;35.562;2022-09-09T10:04:38;100067.31;;;20.85;35.78
73692;BME280;61996;49.910;35.562;2022-09-09T10:07:41;100078.44;;;20.90;35.94
73692;BME280;61996;49.910;35.562;2022-09-09T10:14:18;100090.00;;;20.80;35.95
73692;BME280;61996;49.910;35.562;2022-09-09T10:17:24;100094.91;;;20.75;35.43
73692;BME280;61996;49.910;35.562;2022-09-09T10:20:32;100089.53;;;20.85;36.01
73692;BME280;61996;49.910;35.562;2022-09-09T10:23:43;100098.56;;;20.94;35.81
73692;BME280;61996;49.910;35.562;2022-09-09T10:26:51;100096.28;;;20.99;35.89
73692;BME280;61996;49.910;35.562;2022-09-09T10:30:04;100091.25;;;20.96;35.38
73692;BME280;61996;49.910;35.562;2022-09-09T10:33:12;100092.22;;;21.04;35.39
73692;BME280;61996;49.910;35.562;2022-09-09T10:36:20;100087.28;;;21.10;35.50
73692;BME280;61996;49.910;35.562;2022-09-09T10:39:28;100090.41;;;21.15;35.40
73692;BME280;61996;49.910;35.562;2022-09-09T10:42:38;100081.94;;;21.19;35.95
73692;BME280;61996;49.910;35.562;2022-09-09T10:45:46;100078.13;;;21.12;35.85
73692;BME280;61996;49.910;35.562;2022-09-09T10:49:01;100082.38;;;21.15;35.49
73692;BME280;61996;49.910;35.562;2022-09-09T10:52:09;100075.19;;;21.15;35.24
73692;BME280;61996;49.910;35.562;2022-09-09T10:55:18;100086.84;;;21.24;34.87
73692;BME280;61996;49.910;35.562;2022-09-09T10:58:22;100077.69;;;21.26;35.37
73692;BME280;61996;49.910;35.562;2022-09-09T11:01:29;100077.69;;;21.26;35.76
73692;BME280;61996;49.910;35.562;2022-09-09T11:04:34;100080.50;;;21.25;36.10
73692;BME280;61996;49.910;35.562;2022-09-09T11:07:40;100068.13;;;21.33;35.74
73692;BME280;61996;49.910;35.562;2022-09-09T11:10:45;100079.13;;;21.30;35.71
73692;BME280;61996;49.910;35.562;2022-09-09T11:13:55;100069.56;;;21.28;35.65
73692;BME280;61996;49.910;35.562;2022-09-09T11:17:02;100072.22;;;21.38;35.43
73692;BME280;61996;49.910;35.562;2022-09-09T11:20:06;100073.31;;;21.45;34.96
73692;BME280;61996;49.910;35.562;2022-09-09T11:23:15;100066.72;;;21.49;35.16
73692;BME280;61996;49.910;35.562;2022-09-09T11:26:21;100073.75;;;21.50;35.34
73692;BME280;61996;49.910;35.562;2022-09-09T11:29:41;100077.69;;;21.46;35.24
73692;BME280;61996;49.910;35.562;2022-09-09T11:36:24;100069.03;;;21.61;34.89
73692;BME280;61996;49.910;35.562;2022-09-09T11:39:37;100076.22;;;21.61;35.41
73692;BME280;61996;49.910;35.562;2022-09-09T11:42:46;100076.94;;;21.53;35.37
73692;BME280;61996;49.910;35.562;2022-09-09T11:45:52;100084.13;;;21.53;34.85
73692;BME280;61996;49.910;35.562;2022-09-09T11:49:03;100078.50;;;21.56;34.63
73692;BME280;61996;49.910;35.562;2022-09-09T11:52:11;100074.28;;;21.53;34.94
73692;BME280;61996;49.910;35.562;2022-09-09T11:55:24;100075.69;;;21.57;34.92
73692;BME280;61996;49.910;35.562;2022-09-09T11:58:27;100070.44;;;21.66;34.46
73692;BME280;61996;49.910;35.562;2022-09-09T12:01:35;100068.91;;;21.63;35.07
73692;BME280;61996;49.910;35.562;2022-09-09T12:04:39;100074.75;;;21.76;34.79
73692;BME280;61996;49.910;35.562;2022-09-09T12:07:48;100076.59;;;21.76;34.61
73692;BME280;61996;49.910;35.562;2022-09-09T12:10:55;100079.78;;;22.26;27.93
73692;BME280;61996;49.910;35.562;2022-09-09T12:13:59;100076.59;;;22.03;27.35
73692;BME280;61996;49.910;35.562;2022-09-09T12:17:09;100084.34;;;21.69;27.57
73692;BME280;61996;49.910;35.562;2022-09-09T12:20:13;100070.56;;;22.01;28.65
73692;BME280;61996;49.910;35.562;2022-09-09T12:23:23;100066.63;;;22.51;27.89
73692;BME280;61996;49.910;35.562;2022-09-09T12:26:31;100060.47;;;22.23;28.83
73692;BME280;61996;49.910;35.562;2022-09-09T12:29:37;100070.09;;;22.15;28.26
73692;BME280;61996;49.910;35.562;2022-09-09T12:32:46;100070.00;;;21.70;28.30
73692;BME280;61996;49.910;35.562;2022-09-09T12:35:51;100073.94;;;22.13;30.97
73692;BME280;61996;49.910;35.562;2022-09-09T12:38:59;100069.38;;;21.86;32.69
73692;BME280;61996;49.910;35.562;2022-09-09T12:42:18;100062.88;;;21.88;33.01
73692;BME280;61996;49.910;35.562;2022-09-09T12:45:22;100067.09;;;21.91;32.97
73692;BME280;61996;49.910;35.562;2022-09-09T12:48:28;100067.09;;;21.91;34.04
73692;BME280;61996;49.910;35.562;2022-09-09T12:51:33;100060.59;;;21.94;33.27
73692;BME280;61996;49.910;35.562;2022-09-09T12:54:38;100070.03;;;21.98;33.18
73692;BME280;61996;49.910;35.562;2022-09-09T12:57:47;100075.66;;;21.95;33.34
73692;BME280;61996;49.910;35.562;2022-09-09T13:00:52;100079.19;;;21.95;33.13
73692;BME280;61996;49.910;35.562;2022-09-09T13:03:59;100066.78;;;21.94;33.15
73692;BME280;61996;49.910;35.562;2022-09-09T13:07:05;100069.16;;;21.97;33.40
73692;BME280;61996;49.910;35.562;2022-09-09T13:10:12;100066.03;;;22.02;32.85
73692;BME280;61996;49.910;35.562;2022-09-09T13:13:26;100062.22;;;22.04;33.10
73692;BME280;61996;49.910;35.562;2022-09-09T13:16:31;100055.91;;;22.05;33.20
73692;BME280;61996;49.910;35.562;2022-09-09T13:19:43;100066.72;;;22.04;33.20
73692;BME280;61996;49.910;35.562;2022-09-09T13:22:48;100065.88;;;22.03;33.15
73692;BME280;61996;49.910;35.562;2022-09-09T13:25:57;100062.50;;;22.11;33.08
73692;BME280;61996;49.910;35.562;2022-09-09T13:29:15;100074.38;;;22.08;32.81
73692;BME280;61996;49.910;35.562;2022-09-09T13:32:24;100073.09;;;22.03;32.81
73692;BME280;61996;49.910;35.562;2022-09-09T13:35:28;100065.47;;;22.08;33.54
73692;BME280;61996;49.910;35.562;2022-09-09T13:38:32;100070.41;;;22.12;32.80
73692;BME280;61996;49.910;35.562;2022-09-09T13:41:44;100077.88;;;22.09;33.05
73692;BME280;61996;49.910;35.562;2022-09-09T13:44:47;100077.16;;;22.07;32.71
73692;BME280;61996;49.910;35.562;2022-09-09T13:47:50;100067.84;;;22.11;32.26
73692;BME280;61996;49.910;35.562;2022-09-09T13:50:57;100081.53;;;22.08;32.83
73692;BME280;61996;49.910;35.562;2022-09-09T13:54:00;100084.78;;;22.02;32.64
73692;BME280;61996;49.910;35.562;2022-09-09T13:57:04;100081.25;;;22.11;32.27
73692;BME280;61996;49.910;35.562;2022-09-09T14:00:09;100071.69;;;22.08;32.48
73692;BME280;61996;49.910;35.562;2022-09-09T14:03:14;100084.19;;;22.17;32.39
73692;BME280;61996;49.910;35.562;2022-09-09T14:06:17;100082.34;;;22.18;32.32
73692;BME280;61996;49.910;35.562;2022-09-09T14:09:20;100094.88;;;22.17;32.20
73692;BME280;61996;49.910;35.562;2022-09-09T14:12:25;100103.09;;;22.16;32.33
73692;BME280;61996;49.910;35.562;2022-09-09T14:15:27;100097.75;;;22.06;32.48
73692;BME280;61996;49.910;35.562;2022-09-09T14:18:30;100090.72;;;22.05;32.82
73692;BME280;61996;49.910;35.562;2022-09-09T14:21:35;100102.53;;;22.03;32.27
73692;BME280;61996;49.910;35.562;2022-09-09T14:24:38;100091.31;;;21.99;32.28
73692;BME280;61996;49.910;35.562;2022-09-09T14:27:42;100095.81;;;21.99;32.53
73692;BME280;61996;49.910;35.562;2022-09-09T14:30:46;100100.75;;;21.94;32.50
73692;BME280;61996;49.910;35.562;2022-09-09T14:33:49;100102.28;;;21.96;32.20
73692;BME280;61996;49.910;35.562;2022-09-09T14:36:52;100101.19;;;21.89;32.55
73692;BME280;61996;49.910;35.562;2022-09-09T14:40:03;100096.16;;;21.86;32.60
73692;BME280;61996;49.910;35.562;2022-09-09T14:43:09;100093.47;;;21.86;32.44
73692;BME280;61996;49.910;35.562;2022-09-09T14:46:13;100095.75;;;21.81;32.25
73692;BME280;61996;49.910;35.562;2022-09-09T14:49:17;100107.44;;;21.80;32.13
73692;BME280;61996;49.910;35.562;2022-09-09T14:52:19;100099.56;;;21.78;32.55
73692;BME280;61996;49.910;35.562;2022-09-09T14:55:22;100098.41;;;21.81;32.57
73692;BME280;61996;49.910;35.562;2022-09-09T14:58:26;100103.66;;;21.73;31.66
73692;BME280;61996;49.910;35.562;2022-09-09T15:01:33;100109.44;;;21.78;32.31
73692;BME280;61996;49.910;35.562;2022-09-09T15:04:36;100113.81;;;21.69;31.59
73692;BME280;61996;49.910;35.562;2022-09-09T15:07:38;100123.56;;;21.70;32.08
73692;BME280;61996;49.910;35.562;2022-09-09T15:10:41;100119.63;;;21.65;31.44
73692;BME280;61996;49.910;35.562;2022-09-09T15:13:48;100129.59;;;21.62;32.00
73692;BME280;61996;49.910;35.562;2022-09-09T15:16:54;100139.06;;;21.57;31.73
73692;BME280;61996;49.910;35.562;2022-09-09T15:19:56;100136.66;;;21.54;31.81
73692;BME280;61996;49.910;35.562;2022-09-09T15:22:59;100127.56;;;21.37;30.77
73692;BME280;61996;49.910;35.562;2022-09-09T15:26:02;100135.47;;;21.29;31.56
73692;BME280;61996;49.910;35.562;2022-09-09T15:29:07;100130.78;;;21.21;30.81
73692;BME280;61996;49.910;35.562;2022-09-09T15:32:09;100135.44;;;21.10;31.59
73692;BME280;61996;49.910;35.562;2022-09-09T15:35:12;100142.88;;;21.06;32.19
73692;BME280;61996;49.910;35.562;2022-09-09T15:38:15;100142.59;;;20.90;32.18
73692;BME280;61996;49.910;35.562;2022-09-09T15:41:19;100145.53;;;20.77;32.13
73692;BME280;61996;49.910;35.562;2022-09-09T15:44:25;100144.13;;;20.63;33.50
73692;BME280;61996;49.910;35.562;2022-09-09T15:47:28;100157.22;;;20.36;32.18
73692;BME280;61996;49.910;35.562;2022-09-09T15:50:31;100143.53;;;20.50;34.21
73692;BME280;61996;49.910;35.562;2022-09-09T15:53:33;100156.09;;;20.29;35.22
73692;BME280;61996;49.910;35.562;2022-09-09T15:56:36;100152.38;;;20.10;39.40
73692;BME280;61996;49.910;35.562;2022-09-09T15:59:43;100164.22;;;20.17;37.21
73692;BME280;61996;49.910;35.562;2022-09-09T16:02:46;100157.41;;;20.04;37.82
73692;BME280;61996;49.910;35.562;2022-09-09T16:05:51;100168.56;;;19.88;36.31
73692;BME280;61996;49.910;35.562;2022-09-09T16:08:54;100170.44;;;19.97;34.96
73692;BME280;61996;49.910;35.562;2022-09-09T16:11:57;100170.72;;;19.73;35.92